EDDG 200020Z 28003KT CAVOK 13/12 Q1021 NOSIG EDDG 192350Z 26003KT CAVOK 13/13 Q1021 NOSIG EDDG 192320Z 26005KT CAVOK 14/13 Q1021 NOSIG EDDG 192250Z 27007KT 9999 FEW013 15/14 Q1021 NOSIG EDDG 192220Z 26007KT 9999 FEW014 16/14 Q1021 NOSIG EDDG 192150Z 27007KT 240V300 9999 FEW014 SCT018 BKN030 17/15 Q1021 NOSIG EDDG 192120Z 27008KT 9999 FEW020 BKN032 17/15 Q1020 NOSIG EDDG 192050Z 26009KT 9999 FEW015 SCT020 18/16 Q1020 BECMG 32006KT EDDG 192020Z 23006KT 9999 FEW040 18/16 Q1019 BECMG 31006KT EDDG 191950Z 23006KT 9999 FEW040 18/16 Q1019 BECMG 31006KT EDDG 191920Z 22006KT CAVOK 18/16 Q1019 NOSIG EDDG 191850Z 20005KT 160V230 CAVOK 18/16 Q1019 NOSIG EDDG 191820Z 20006KT 150V240 9999 FEW008 19/16 Q1019 NOSIG EDDG 191750Z 19007KT 150V230 9999 FEW008 18/17 Q1019 NOSIG EDDG 191720Z 19008KT 150V230 9999 FEW007 18/16 Q1019 NOSIG EDDG 191650Z 19006KT 160V220 CAVOK 18/17 Q1018 NOSIG EDDG 191620Z 17004KT 140V200 CAVOK 18/16 Q1017 NOSIG EDDG 191550Z 10005KT 050V130 9999 -RA NSC 17/16 Q1016 NOSIG EDDG 191520Z 01004KT 310V110 9999 FEW035 17/16 Q1017 NOSIG EDDG 191450Z 33010KT 9999 -SHRA FEW015 SCT025CB 17/16 Q1018 RETS TEMPO SHRA EDDG 191420Z 28008KT 220V330 9000 -TSRA FEW008 SCT025CB 16/16 Q1019 RESHRA TEMPO SHRA EDDG 191350Z 27031G47KT 1800 +TSRA FEW008 BKN020CB 16/15 Q1019 BECMG NSW EDDG 191320Z 17007KT 140V210 9999 VCTS SCT060CB 28/14 Q1015 TEMPO 27025G45KT 2000 +TSGRRA EDDG 191250Z 17006KT 100V220 9999 FEW060CB 29/14 Q1015 TEMPO 27025G45KT 2000 +TSGRRA EDDG 191220Z 16007KT 090V240 CAVOK 29/14 Q1016 NOSIG EDDG 191150Z VRB06KT CAVOK 28/15 Q1016 NOSIG EDDG 191120Z VRB06KT CAVOK 28/15 Q1016 NOSIG EDDG 191050Z 17007KT 130V200 CAVOK 26/14 Q1017 NOSIG EDDG 191020Z 12006KT 040V170 CAVOK 26/14 Q1017 NOSIG EDDG 190950Z 17007KT 110V210 CAVOK 25/14 Q1017 NOSIG EDDG 190920Z 14007KT 100V180 CAVOK 23/14 Q1017 NOSIG EDDG 190850Z 15006KT 100V180 CAVOK 24/14 Q1018 NOSIG EDDG 190820Z 17003KT 100V250 CAVOK 23/14 Q1018 NOSIG EDDG 190750Z 16003KT 100V250 CAVOK 23/14 Q1018 NOSIG EDDG 190720Z VRB02KT CAVOK 23/14 Q1018 NOSIG EDDG 190650Z VRB03KT CAVOK 22/14 Q1019 NOSIG EDDG 190620Z VRB03KT CAVOK 20/14 Q1018 NOSIG EDDG 190550Z 12004KT 050V180 CAVOK 20/14 Q1018 NOSIG EDDG 190520Z 12003KT 030V190 CAVOK 18/14 Q1018 NOSIG EDDG 190450Z VRB03KT CAVOK 18/13 Q1018 NOSIG EDDG 190420Z VRB03KT CAVOK 17/13 Q1018 NOSIG EDDG 190350Z VRB02KT CAVOK 17/13 Q1018 NOSIG EDDG 190320Z 11003KT 040V190 CAVOK 18/13 Q1018 NOSIG EDDG 190250Z VRB03KT CAVOK 18/13 Q1018 NOSIG EDDG 190220Z VRB03KT CAVOK 18/13 Q1018 NOSIG EDDG 190150Z 11003KT 030V180 CAVOK 18/14 Q1018 NOSIG EDDG 190120Z VRB02KT CAVOK 18/14 Q1018 NOSIG EDDG 190050Z 13004KT 080V170 CAVOK 19/14 Q1018 NOSIG EDDG 190020Z 12003KT 060V190 CAVOK 18/15 Q1019 NOSIG EDDG 182350Z VRB02KT CAVOK 17/15 Q1019 NOSIG EDDG 182320Z 11001KT CAVOK 17/15 Q1019 NOSIG EDDG 182250Z 00000KT CAVOK 18/16 Q1019 NOSIG EDDG 182220Z 13002KT CAVOK 19/16 Q1019 NOSIG EDDG 182150Z VRB01KT CAVOK 19/16 Q1019 NOSIG EDDG 182120Z VRB02KT CAVOK 21/15 Q1019 NOSIG EDDG 182050Z VRB02KT CAVOK 21/15 Q1019 NOSIG EDDG 182020Z VRB02KT CAVOK 22/15 Q1019 NOSIG EDDG 181950Z VRB02KT CAVOK 21/15 Q1019 NOSIG EDDG 181920Z VRB01KT CAVOK 23/15 Q1019 NOSIG EDDG 181850Z VRB01KT CAVOK 24/15 Q1019 NOSIG EDDG 181820Z VRB02KT CAVOK 25/15 Q1019 NOSIG EDDG 181750Z VRB02KT CAVOK 27/16 Q1019 NOSIG EDDG 181720Z 17004KT CAVOK 28/13 Q1019 NOSIG EDDG 181650Z 15004KT 120V180 CAVOK 28/13 Q1019 NOSIG EDDG 181620Z 20004KT 130V250 CAVOK 29/12 Q1019 NOSIG EDDG 181550Z 21006KT 160V250 CAVOK 29/12 Q1019 NOSIG EDDG 181520Z 21008KT 170V250 CAVOK 29/12 Q1019 NOSIG EDDG 181450Z 20005KT 140V250 CAVOK 29/11 Q1020 NOSIG EDDG 181420Z 18007KT 120V260 CAVOK 29/12 Q1020 NOSIG EDDG 181350Z VRB05KT CAVOK 30/12 Q1020 NOSIG EDDG 181320Z 22007KT 170V260 CAVOK 30/12 Q1020 NOSIG EDDG 181250Z 20005KT 140V300 CAVOK 29/13 Q1020 NOSIG

METAR Messwerte "MUENSTER/OSNABRU" EDDG

Zurück zur Übersicht

Ortsname
Ländercode / m ü. NN
Zeit Temperatur Taupunkt Rel.
Luftfeuchte
Luftdruck:
Altimeter
NN
Station
Wind in Beaufort
(Knoten)
Sichtweite
(Meter)
Wolken
(Meter über Grund)
Wettererscheinung
MUENSTER/OSNABRU
DE 46
Fr 20.05. 02:20131294 %1021
1021
1015
W 2 (3)>= 10000Nicht signifikant 
MUENSTER/OSNABRU
DE 46
Fr 20.05. 01:501313100 %1021
1021
1015
W 2 (3)>= 10000Nicht signifikant 
MUENSTER/OSNABRU
DE 46
Fr 20.05. 01:20141394 %1021
1021
1015
W 2 (5)>= 10000Nicht signifikant 
MUENSTER/OSNABRU
DE 46
Fr 20.05. 00:50151494 %1021
1021
1015
W 3 (7)>= 10000Leicht bewölkt (400) 
MUENSTER/OSNABRU
DE 46
Fr 20.05. 00:20161488 %1021
1021
1015
W 3 (7)>= 10000Leicht bewölkt (430) 
MUENSTER/OSNABRU
DE 46
Do 19.05. 23:50171588 %1021
1021
1015
W 3 (7)
WSW - WNW
>= 10000Stark bewölkt (910)
Wolkig (550)
Leicht bewölkt (430)
 
MUENSTER/OSNABRU
DE 46
Do 19.05. 23:20171588 %1020
1020
1014
W 3 (8)>= 10000Stark bewölkt (980)
Leicht bewölkt (610)
 
MUENSTER/OSNABRU
DE 46
Do 19.05. 22:50181688 %1020
1020
1014
W 3 (9)
Bald Übergang zu:
NW 2 (6)
>= 10000Wolkig (610)
Leicht bewölkt (460)
 
MUENSTER/OSNABRU
DE 46
Do 19.05. 22:20181688 %1019
1019
1013
SW 2 (6)
Bald Übergang zu:
NW 2 (6)
>= 10000Leicht bewölkt (1200) 
MUENSTER/OSNABRU
DE 46
Do 19.05. 21:50181688 %1019
1019
1013
SW 2 (6)
Bald Übergang zu:
NW 2 (6)
>= 10000Leicht bewölkt (1200) 
MUENSTER/OSNABRU
DE 46
Do 19.05. 21:20181688 %1019
1019
1013
SW 2 (6)>= 10000Nicht signifikant 
MUENSTER/OSNABRU
DE 46
Do 19.05. 20:50181688 %1019
1019
1013
SSW 2 (5)
SSO - SW
>= 10000Nicht signifikant 
MUENSTER/OSNABRU
DE 46
Do 19.05. 20:20191683 %1019
1019
1013
SSW 2 (6)
SSO - WSW
>= 10000Leicht bewölkt (240) 
MUENSTER/OSNABRU
DE 46
Do 19.05. 19:50181794 %1019
1019
1013
S 3 (7)
SSO - SW
>= 10000Leicht bewölkt (240) 
MUENSTER/OSNABRU
DE 46
Do 19.05. 19:20181688 %1019
1019
1013
S 3 (8)
SSO - SW
>= 10000Leicht bewölkt (210) 
MUENSTER/OSNABRU
DE 46
Do 19.05. 18:50181794 %1018
1018
1012
S 2 (6)
SSO - SW
>= 10000Nicht signifikant 
MUENSTER/OSNABRU
DE 46
Do 19.05. 18:20181688 %1017
1017
1011
S 2 (4)
SO - SSW
>= 10000Nicht signifikant 
MUENSTER/OSNABRU
DE 46
Do 19.05. 17:50171694 %1016
1016
1010
O 2 (5)
NO - SO
>= 10000Nicht signifikantRegen (schwach)
MUENSTER/OSNABRU
DE 46
Do 19.05. 17:20171694 %1017
1017
1011
N 2 (4)
NW - OSO
>= 10000Leicht bewölkt (1100) 
MUENSTER/OSNABRU
DE 46
Do 19.05. 16:50171694 %1018
1018
1012
NNW 3 (10)>= 10000Wolkig Cb (760)
Leicht bewölkt (460)
Regen-Schauer (schwach)
Bald zeitweise: Regen-Schauer
MUENSTER/OSNABRU
DE 46
Do 19.05. 16:201616100 %1019
1019
1013
W 3 (8)
SW - NNW
9000Wolkig Cb (760)
Leicht bewölkt (240)
Gewitter mit Regen (schwach)
Bald zeitweise: Regen-Schauer
MUENSTER/OSNABRU
DE 46
Do 19.05. 15:50161594 %1019
1019
1013
W 7 (31) - 9 (47)1800Stark bewölkt Cb (610)
Leicht bewölkt (240)
Gewitter mit Regen (stark)
MUENSTER/OSNABRU
DE 46
Do 19.05. 15:20281442 %1015
1015
1009
S 3 (7)
SO - SSW
Bald zeitweise:
W 6 (25) - 9 (45)
>= 10000
Bald zeitweise: 2000
Wolkig Cb (1800) Bald zeitweise: Gewitter mit Hagel/Regen (stark)
MUENSTER/OSNABRU
DE 46
Do 19.05. 14:50291440 %1015
1015
1009
S 2 (6)
O - SW
Bald zeitweise:
W 6 (25) - 9 (45)
>= 10000
Bald zeitweise: 2000
Leicht bewölkt Cb (1800) Bald zeitweise: Gewitter mit Hagel/Regen (stark)
MUENSTER/OSNABRU
DE 46
Do 19.05. 14:20291440 %1016
1016
1010
SSO 3 (7)
O - WSW
>= 10000Nicht signifikant 
MUENSTER/OSNABRU
DE 46
Do 19.05. 13:50281545 %1016
1016
1010
Uml 2 (6)>= 10000Nicht signifikant 
MUENSTER/OSNABRU
DE 46
Do 19.05. 13:20281545 %1016
1016
1010
Uml 2 (6)>= 10000Nicht signifikant 
MUENSTER/OSNABRU
DE 46
Do 19.05. 12:50261448 %1017
1017
1011
S 3 (7)
SO - SSW
>= 10000Nicht signifikant 
MUENSTER/OSNABRU
DE 46
Do 19.05. 12:20261448 %1017
1017
1011
OSO 2 (6)
NO - S
>= 10000Nicht signifikant 
MUENSTER/OSNABRU
DE 46
Do 19.05. 11:50251450 %1017
1017
1011
S 3 (7)
OSO - SSW
>= 10000Nicht signifikant 
MUENSTER/OSNABRU
DE 46
Do 19.05. 11:20231457 %1017
1017
1011
SO 3 (7)
O - S
>= 10000Nicht signifikant 
MUENSTER/OSNABRU
DE 46
Do 19.05. 10:50241454 %1018
1018
1012
SSO 2 (6)
O - S
>= 10000Nicht signifikant 
MUENSTER/OSNABRU
DE 46
Do 19.05. 10:20231457 %1018
1018
1012
S 2 (3)
O - WSW
>= 10000Nicht signifikant 
MUENSTER/OSNABRU
DE 46
Do 19.05. 09:50231457 %1018
1018
1012
SSO 2 (3)
O - WSW
>= 10000Nicht signifikant 
MUENSTER/OSNABRU
DE 46
Do 19.05. 09:20231457 %1018
1018
1012
Uml 1 (2)>= 10000Nicht signifikant 
MUENSTER/OSNABRU
DE 46
Do 19.05. 08:50221460 %1019
1019
1013
Uml 2 (3)>= 10000Nicht signifikant 
MUENSTER/OSNABRU
DE 46
Do 19.05. 08:20201468 %1018
1018
1012
Uml 2 (3)>= 10000Nicht signifikant 
MUENSTER/OSNABRU
DE 46
Do 19.05. 07:50201468 %1018
1018
1012
OSO 2 (4)
NO - S
>= 10000Nicht signifikant 
MUENSTER/OSNABRU
DE 46
Do 19.05. 07:20181477 %1018
1018
1012
OSO 2 (3)
NNO - S
>= 10000Nicht signifikant 
MUENSTER/OSNABRU
DE 46
Do 19.05. 06:50181373 %1018
1018
1012
Uml 2 (3)>= 10000Nicht signifikant 
MUENSTER/OSNABRU
DE 46
Do 19.05. 06:20171377 %1018
1018
1012
Uml 2 (3)>= 10000Nicht signifikant 
MUENSTER/OSNABRU
DE 46
Do 19.05. 05:50171377 %1018
1018
1012
Uml 1 (2)>= 10000Nicht signifikant 
MUENSTER/OSNABRU
DE 46
Do 19.05. 05:20181373 %1018
1018
1012
OSO 2 (3)
NO - S
>= 10000Nicht signifikant 
MUENSTER/OSNABRU
DE 46
Do 19.05. 04:50181373 %1018
1018
1012
Uml 2 (3)>= 10000Nicht signifikant 
MUENSTER/OSNABRU
DE 46
Do 19.05. 04:20181373 %1018
1018
1012
Uml 2 (3)>= 10000Nicht signifikant 
MUENSTER/OSNABRU
DE 46
Do 19.05. 03:50181477 %1018
1018
1012
OSO 2 (3)
NNO - S
>= 10000Nicht signifikant 
MUENSTER/OSNABRU
DE 46
Do 19.05. 03:20181477 %1018
1018
1012
Uml 1 (2)>= 10000Nicht signifikant 
MUENSTER/OSNABRU
DE 46
Do 19.05. 02:50191473 %1018
1018
1012
SO 2 (4)
O - S
>= 10000Nicht signifikant 
MUENSTER/OSNABRU
DE 46
Do 19.05. 02:20181583 %1019
1019
1013
OSO 2 (3)
ONO - S
>= 10000Nicht signifikant 
MUENSTER/OSNABRU
DE 46
Do 19.05. 01:50171588 %1019
1019
1013
Uml 1 (2)>= 10000Nicht signifikant 
MUENSTER/OSNABRU
DE 46
Do 19.05. 01:20171588 %1019
1019
1013
OSO 1 (1)>= 10000Nicht signifikant 
MUENSTER/OSNABRU
DE 46
Do 19.05. 00:50181688 %1019
1019
1013
Windstill>= 10000Nicht signifikant 
MUENSTER/OSNABRU
DE 46
Do 19.05. 00:20191683 %1019
1019
1013
SO 1 (2)>= 10000Nicht signifikant 
MUENSTER/OSNABRU
DE 46
Mi 18.05. 23:50191683 %1019
1019
1013
Uml 1 (1)>= 10000Nicht signifikant 
MUENSTER/OSNABRU
DE 46
Mi 18.05. 23:20211569 %1019
1019
1013
Uml 1 (2)>= 10000Nicht signifikant 
MUENSTER/OSNABRU
DE 46
Mi 18.05. 22:50211569 %1019
1019
1013
Uml 1 (2)>= 10000Nicht signifikant 
MUENSTER/OSNABRU
DE 46
Mi 18.05. 22:20221565 %1019
1019
1013
Uml 1 (2)>= 10000Nicht signifikant 
MUENSTER/OSNABRU
DE 46
Mi 18.05. 21:50211569 %1019
1019
1013
Uml 1 (2)>= 10000Nicht signifikant 
MUENSTER/OSNABRU
DE 46
Mi 18.05. 21:20231561 %1019
1019
1013
Uml 1 (1)>= 10000Nicht signifikant 
MUENSTER/OSNABRU
DE 46
Mi 18.05. 20:50241557 %1019
1019
1013
Uml 1 (1)>= 10000Nicht signifikant 
MUENSTER/OSNABRU
DE 46
Mi 18.05. 20:20251554 %1019
1019
1013
Uml 1 (2)>= 10000Nicht signifikant 
MUENSTER/OSNABRU
DE 46
Mi 18.05. 19:50271651 %1019
1019
1013
Uml 1 (2)>= 10000Nicht signifikant 
MUENSTER/OSNABRU
DE 46
Mi 18.05. 19:20281340 %1019
1019
1013
S 2 (4)>= 10000Nicht signifikant 
MUENSTER/OSNABRU
DE 46
Mi 18.05. 18:50281340 %1019
1019
1013
SSO 2 (4)
OSO - S
>= 10000Nicht signifikant 
MUENSTER/OSNABRU
DE 46
Mi 18.05. 18:20291235 %1019
1019
1013
SSW 2 (4)
SO - WSW
>= 10000Nicht signifikant 
MUENSTER/OSNABRU
DE 46
Mi 18.05. 17:50291235 %1019
1019
1013
SSW 2 (6)
SSO - WSW
>= 10000Nicht signifikant 
MUENSTER/OSNABRU
DE 46
Mi 18.05. 17:20291235 %1019
1019
1013
SSW 3 (8)
S - WSW
>= 10000Nicht signifikant 
MUENSTER/OSNABRU
DE 46
Mi 18.05. 16:50291133 %1020
1020
1014
SSW 2 (5)
SO - WSW
>= 10000Nicht signifikant 
MUENSTER/OSNABRU
DE 46
Mi 18.05. 16:20291235 %1020
1020
1014
S 3 (7)
OSO - W
>= 10000Nicht signifikant 
MUENSTER/OSNABRU
DE 46
Mi 18.05. 15:50301233 %1020
1020
1014
Uml 2 (5)>= 10000Nicht signifikant 
MUENSTER/OSNABRU
DE 46
Mi 18.05. 15:20301233 %1020
1020
1014
SW 3 (7)
S - W
>= 10000Nicht signifikant 
MUENSTER/OSNABRU
DE 46
Mi 18.05. 14:50291337 %1020
1020
1014
SSW 2 (5)
SO - WNW
>= 10000Nicht signifikant 

Altimeter: Einstellung am Altimeter (Höhenmesser), die Höhe 0 muss auf diesen Luftdruckwert zeigen, damit das Gerät die Stationshöhe richtig anzeigt.

NN: Luftdruck reduziert auf "Normal Null", auf Meereshöhe, dieser von der Temperatur abhängige Wert wird bisweilen unkorrekt einfach als "Luftdruck" bezeichnet. Eigentlich nur eine fiktive Größe, die es erlaubt, Stationen auf unterschiedlichen Höhen miteinander zu vergleichen.

Station: Realer Luftdruck an der Station.